sensor_id;sensor_type;location;lat;lon;timestamp;temperature;humidity
51853;DHT22;37894;53.172;6.598;2022-09-03T00:00:16;16.60;84.70
51853;DHT22;37894;53.172;6.598;2022-09-03T00:02:59;16.60;85.10
51853;DHT22;37894;53.172;6.598;2022-09-03T00:13:46;16.40;86.40
51853;DHT22;37894;53.172;6.598;2022-09-03T00:16:17;16.40;87.40
51853;DHT22;37894;53.172;6.598;2022-09-03T00:18:51;16.40;87.70
51853;DHT22;37894;53.172;6.598;2022-09-03T00:21:32;16.40;88.90
51853;DHT22;37894;53.172;6.598;2022-09-03T00:24:00;16.30;88.60
51853;DHT22;37894;53.172;6.598;2022-09-03T00:26:30;16.30;87.50
51853;DHT22;37894;53.172;6.598;2022-09-03T00:29:06;16.30;88.00
51853;DHT22;37894;53.172;6.598;2022-09-03T00:31:43;16.30;88.90
51853;DHT22;37894;53.172;6.598;2022-09-03T00:34:36;16.30;89.00
51853;DHT22;37894;53.172;6.598;2022-09-03T00:37:07;16.30;90.20
51853;DHT22;37894;53.172;6.598;2022-09-03T00:39:32;16.20;90.00
51853;DHT22;37894;53.172;6.598;2022-09-03T00:48:05;16.10;90.50
51853;DHT22;37894;53.172;6.598;2022-09-03T00:54:15;16.10;91.20
51853;DHT22;37894;53.172;6.598;2022-09-03T00:57:05;16.00;91.30
51853;DHT22;37894;53.172;6.598;2022-09-03T01:08:36;15.90;91.40
51853;DHT22;37894;53.172;6.598;2022-09-03T01:13:43;15.90;91.70
51853;DHT22;37894;53.172;6.598;2022-09-03T01:19:15;15.90;91.70
51853;DHT22;37894;53.172;6.598;2022-09-03T01:24:48;15.80;91.80
51853;DHT22;37894;53.172;6.598;2022-09-03T01:30:39;15.80;92.00
51853;DHT22;37894;53.172;6.598;2022-09-03T01:36:02;15.70;92.50
51853;DHT22;37894;53.172;6.598;2022-09-03T01:38:50;15.60;92.40
51853;DHT22;37894;53.172;6.598;2022-09-03T01:41:46;15.60;92.50
51853;DHT22;37894;53.172;6.598;2022-09-03T01:50:27;15.60;93.10
51853;DHT22;37894;53.172;6.598;2022-09-03T01:56:21;15.50;92.80
51853;DHT22;37894;53.172;6.598;2022-09-03T02:01:40;15.40;93.00
51853;DHT22;37894;53.172;6.598;2022-09-03T02:04:16;15.40;93.30
51853;DHT22;37894;53.172;6.598;2022-09-03T02:06:42;15.40;93.90
51853;DHT22;37894;53.172;6.598;2022-09-03T02:09:09;15.30;94.50
51853;DHT22;37894;53.172;6.598;2022-09-03T02:11:35;15.30;94.60
51853;DHT22;37894;53.172;6.598;2022-09-03T02:14:02;15.40;95.20
51853;DHT22;37894;53.172;6.598;2022-09-03T02:16:32;15.20;95.40
51853;DHT22;37894;53.172;6.598;2022-09-03T02:19:05;15.20;95.30
51853;DHT22;37894;53.172;6.598;2022-09-03T02:21:37;15.20;95.60
51853;DHT22;37894;53.172;6.598;2022-09-03T02:24:04;15.20;96.40
51853;DHT22;37894;53.172;6.598;2022-09-03T02:26:30;15.10;95.80
51853;DHT22;37894;53.172;6.598;2022-09-03T02:28:57;15.10;95.80
51853;DHT22;37894;53.172;6.598;2022-09-03T02:31:22;15.20;95.80
51853;DHT22;37894;53.172;6.598;2022-09-03T02:33:49;15.10;95.70
51853;DHT22;37894;53.172;6.598;2022-09-03T02:36:18;15.10;95.60
51853;DHT22;37894;53.172;6.598;2022-09-03T02:38:45;15.10;95.70
51853;DHT22;37894;53.172;6.598;2022-09-03T02:41:11;15.10;95.90
51853;DHT22;37894;53.172;6.598;2022-09-03T02:43:41;15.10;95.80
51853;DHT22;37894;53.172;6.598;2022-09-03T02:46:22;15.10;96.20
51853;DHT22;37894;53.172;6.598;2022-09-03T02:48:48;15.10;96.60
51853;DHT22;37894;53.172;6.598;2022-09-03T02:51:14;15.00;96.80
51853;DHT22;37894;53.172;6.598;2022-09-03T02:53:41;15.00;97.20
51853;DHT22;37894;53.172;6.598;2022-09-03T02:56:06;14.90;97.20
51853;DHT22;37894;53.172;6.598;2022-09-03T02:58:32;14.90;97.00
51853;DHT22;37894;53.172;6.598;2022-09-03T03:00:58;14.90;97.20
51853;DHT22;37894;53.172;6.598;2022-09-03T03:03:24;14.90;97.70
51853;DHT22;37894;53.172;6.598;2022-09-03T03:05:52;14.80;98.20
51853;DHT22;37894;53.172;6.598;2022-09-03T03:08:21;14.80;98.60
51853;DHT22;37894;53.172;6.598;2022-09-03T03:10:51;14.80;98.80
51853;DHT22;37894;53.172;6.598;2022-09-03T03:13:17;14.80;98.70
51853;DHT22;37894;53.172;6.598;2022-09-03T03:15:43;14.80;98.70
51853;DHT22;37894;53.172;6.598;2022-09-03T03:18:10;14.80;99.00
51853;DHT22;37894;53.172;6.598;2022-09-03T03:20:39;14.80;98.90
51853;DHT22;37894;53.172;6.598;2022-09-03T03:23:06;14.80;99.00
51853;DHT22;37894;53.172;6.598;2022-09-03T03:25:33;14.80;99.00
51853;DHT22;37894;53.172;6.598;2022-09-03T03:27:59;14.80;99.30
51853;DHT22;37894;53.172;6.598;2022-09-03T03:30:26;14.80;99.10
51853;DHT22;37894;53.172;6.598;2022-09-03T03:32:56;14.80;99.10
51853;DHT22;37894;53.172;6.598;2022-09-03T03:35:22;14.90;99.30
51853;DHT22;37894;53.172;6.598;2022-09-03T03:37:48;14.80;99.40
51853;DHT22;37894;53.172;6.598;2022-09-03T03:40:13;14.80;99.50
51853;DHT22;37894;53.172;6.598;2022-09-03T03:42:40;14.80;99.40
51853;DHT22;37894;53.172;6.598;2022-09-03T03:45:06;14.80;99.50
51853;DHT22;37894;53.172;6.598;2022-09-03T03:47:33;14.80;99.60
51853;DHT22;37894;53.172;6.598;2022-09-03T03:49:59;14.80;99.80
51853;DHT22;37894;53.172;6.598;2022-09-03T03:52:25;14.80;99.90
51853;DHT22;37894;53.172;6.598;2022-09-03T03:54:52;14.80;99.90
51853;DHT22;37894;53.172;6.598;2022-09-03T03:57:19;14.80;99.90
51853;DHT22;37894;53.172;6.598;2022-09-03T03:59:45;14.80;99.90
51853;DHT22;37894;53.172;6.598;2022-09-03T04:02:11;14.80;99.90
51853;DHT22;37894;53.172;6.598;2022-09-03T04:04:37;14.70;99.90
51853;DHT22;37894;53.172;6.598;2022-09-03T04:07:03;14.80;99.90
51853;DHT22;37894;53.172;6.598;2022-09-03T04:09:28;14.80;99.90
51853;DHT22;37894;53.172;6.598;2022-09-03T04:11:54;14.80;99.90
51853;DHT22;37894;53.172;6.598;2022-09-03T04:14:22;14.80;99.90
51853;DHT22;37894;53.172;6.598;2022-09-03T04:16:48;14.80;99.90
51853;DHT22;37894;53.172;6.598;2022-09-03T04:19:16;14.80;99.90
51853;DHT22;37894;53.172;6.598;2022-09-03T04:21:42;14.80;99.90
51853;DHT22;37894;53.172;6.598;2022-09-03T04:24:08;14.80;99.90
51853;DHT22;37894;53.172;6.598;2022-09-03T04:26:33;14.70;99.90
51853;DHT22;37894;53.172;6.598;2022-09-03T04:29:02;14.70;99.90
51853;DHT22;37894;53.172;6.598;2022-09-03T04:31:29;14.80;99.90
51853;DHT22;37894;53.172;6.598;2022-09-03T04:33:55;14.90;99.90
51853;DHT22;37894;53.172;6.598;2022-09-03T04:36:23;14.70;99.90
51853;DHT22;37894;53.172;6.598;2022-09-03T04:38:51;14.70;99.90
51853;DHT22;37894;53.172;6.598;2022-09-03T04:41:23;14.70;99.90
51853;DHT22;37894;53.172;6.598;2022-09-03T04:43:53;14.70;99.90
51853;DHT22;37894;53.172;6.598;2022-09-03T04:46:20;14.90;99.90
51853;DHT22;37894;53.172;6.598;2022-09-03T04:48:50;14.60;99.90
51853;DHT22;37894;53.172;6.598;2022-09-03T04:51:19;14.60;99.90
51853;DHT22;37894;53.172;6.598;2022-09-03T04:53:47;14.60;99.90
51853;DHT22;37894;53.172;6.598;2022-09-03T04:56:29;14.60;99.90
51853;DHT22;37894;53.172;6.598;2022-09-03T04:59:00;14.60;99.90
51853;DHT22;37894;53.172;6.598;2022-09-03T05:01:28;14.50;99.90
51853;DHT22;37894;53.172;6.598;2022-09-03T05:03:55;14.40;99.90
51853;DHT22;37894;53.172;6.598;2022-09-03T05:06:23;14.50;99.90
51853;DHT22;37894;53.172;6.598;2022-09-03T05:08:51;14.50;99.90
51853;DHT22;37894;53.172;6.598;2022-09-03T05:11:18;14.40;99.90
51853;DHT22;37894;53.172;6.598;2022-09-03T05:13:50;14.50;99.90
51853;DHT22;37894;53.172;6.598;2022-09-03T05:16:17;14.40;99.90
51853;DHT22;37894;53.172;6.598;2022-09-03T05:18:44;14.40;99.90
51853;DHT22;37894;53.172;6.598;2022-09-03T05:21:16;14.40;99.90
51853;DHT22;37894;53.172;6.598;2022-09-03T05:23:45;14.40;99.90
51853;DHT22;37894;53.172;6.598;2022-09-03T05:26:16;14.40;99.90
51853;DHT22;37894;53.172;6.598;2022-09-03T05:28:43;14.50;99.90
51853;DHT22;37894;53.172;6.598;2022-09-03T05:33:47;14.50;99.90
51853;DHT22;37894;53.172;6.598;2022-09-03T05:36:15;14.50;99.90
51853;DHT22;37894;53.172;6.598;2022-09-03T05:38:41;14.50;99.90
51853;DHT22;37894;53.172;6.598;2022-09-03T05:41:09;14.50;99.90
51853;DHT22;37894;53.172;6.598;2022-09-03T05:43:36;15.10;99.90
51853;DHT22;37894;53.172;6.598;2022-09-03T05:46:07;14.50;99.90
51853;DHT22;37894;53.172;6.598;2022-09-03T05:48:35;14.50;99.90
51853;DHT22;37894;53.172;6.598;2022-09-03T05:51:12;14.50;99.90
51853;DHT22;37894;53.172;6.598;2022-09-03T05:53:41;14.50;99.90
51853;DHT22;37894;53.172;6.598;2022-09-03T05:56:10;14.50;99.90
51853;DHT22;37894;53.172;6.598;2022-09-03T05:58:38;14.60;99.90
51853;DHT22;37894;53.172;6.598;2022-09-03T06:01:21;14.60;99.90
51853;DHT22;37894;53.172;6.598;2022-09-03T06:03:55;14.60;99.90
51853;DHT22;37894;53.172;6.598;2022-09-03T06:06:21;14.60;99.90
51853;DHT22;37894;53.172;6.598;2022-09-03T06:08:51;14.60;99.90
51853;DHT22;37894;53.172;6.598;2022-09-03T06:11:17;14.80;99.90
51853;DHT22;37894;53.172;6.598;2022-09-03T06:13:43;14.70;99.90
51853;DHT22;37894;53.172;6.598;2022-09-03T06:16:08;14.70;99.90
51853;DHT22;37894;53.172;6.598;2022-09-03T06:18:34;14.90;99.90
51853;DHT22;37894;53.172;6.598;2022-09-03T06:21:02;14.90;99.90
51853;DHT22;37894;53.172;6.598;2022-09-03T06:23:28;14.70;99.90
51853;DHT22;37894;53.172;6.598;2022-09-03T06:26:13;14.70;99.90
51853;DHT22;37894;53.172;6.598;2022-09-03T06:28:41;14.80;99.90
51853;DHT22;37894;53.172;6.598;2022-09-03T06:31:12;14.80;99.90
51853;DHT22;37894;53.172;6.598;2022-09-03T06:33:39;14.90;99.90
51853;DHT22;37894;53.172;6.598;2022-09-03T06:36:06;14.90;99.90
51853;DHT22;37894;53.172;6.598;2022-09-03T06:38:34;15.00;99.90
51853;DHT22;37894;53.172;6.598;2022-09-03T06:41:02;15.00;99.90
51853;DHT22;37894;53.172;6.598;2022-09-03T06:43:31;15.10;99.90
51853;DHT22;37894;53.172;6.598;2022-09-03T06:45:59;15.10;99.90
51853;DHT22;37894;53.172;6.598;2022-09-03T06:48:26;15.20;99.90
51853;DHT22;37894;53.172;6.598;2022-09-03T06:51:07;15.20;99.90
51853;DHT22;37894;53.172;6.598;2022-09-03T06:53:35;15.20;99.90
51853;DHT22;37894;53.172;6.598;2022-09-03T06:56:04;15.30;99.90
51853;DHT22;37894;53.172;6.598;2022-09-03T06:58:35;15.40;99.90
51853;DHT22;37894;53.172;6.598;2022-09-03T07:01:28;16.00;99.90
51853;DHT22;37894;53.172;6.598;2022-09-03T07:03:57;15.60;99.90
51853;DHT22;37894;53.172;6.598;2022-09-03T07:06:25;15.60;99.90
51853;DHT22;37894;53.172;6.598;2022-09-03T07:08:54;15.70;99.90
51853;DHT22;37894;53.172;6.598;2022-09-03T07:11:24;15.80;99.90
51853;DHT22;37894;53.172;6.598;2022-09-03T07:13:52;15.90;99.90
51853;DHT22;37894;53.172;6.598;2022-09-03T07:16:20;15.90;99.90
51853;DHT22;37894;53.172;6.598;2022-09-03T07:18:47;16.00;99.90
51853;DHT22;37894;53.172;6.598;2022-09-03T07:21:21;16.10;99.90
51853;DHT22;37894;53.172;6.598;2022-09-03T07:23:47;16.20;99.90
51853;DHT22;37894;53.172;6.598;2022-09-03T07:26:16;16.40;99.90
51853;DHT22;37894;53.172;6.598;2022-09-03T07:28:44;16.40;99.90
51853;DHT22;37894;53.172;6.598;2022-09-03T07:31:16;16.40;99.90
51853;DHT22;37894;53.172;6.598;2022-09-03T07:33:44;16.70;99.90
51853;DHT22;37894;53.172;6.598;2022-09-03T07:36:13;16.70;99.90
51853;DHT22;37894;53.172;6.598;2022-09-03T07:38:41;16.80;99.90
51853;DHT22;37894;53.172;6.598;2022-09-03T07:41:08;16.80;99.90
51853;DHT22;37894;53.172;6.598;2022-09-03T07:43:39;16.90;99.90
51853;DHT22;37894;53.172;6.598;2022-09-03T07:46:06;17.10;99.60
51853;DHT22;37894;53.172;6.598;2022-09-03T07:48:33;17.20;99.50
51853;DHT22;37894;53.172;6.598;2022-09-03T07:50:59;17.30;99.20
51853;DHT22;37894;53.172;6.598;2022-09-03T07:53:28;18.20;99.40
51853;DHT22;37894;53.172;6.598;2022-09-03T07:56:00;17.50;98.80
51853;DHT22;37894;53.172;6.598;2022-09-03T07:58:30;17.60;98.10
51853;DHT22;37894;53.172;6.598;2022-09-03T08:00:56;17.60;97.90
51853;DHT22;37894;53.172;6.598;2022-09-03T08:03:22;17.80;97.30
51853;DHT22;37894;53.172;6.598;2022-09-03T08:05:48;17.90;97.30
51853;DHT22;37894;53.172;6.598;2022-09-03T08:08:14;18.00;97.30
51853;DHT22;37894;53.172;6.598;2022-09-03T08:10:40;18.10;96.60
51853;DHT22;37894;53.172;6.598;2022-09-03T08:13:06;18.20;96.30
51853;DHT22;37894;53.172;6.598;2022-09-03T08:15:32;18.20;95.70
51853;DHT22;37894;53.172;6.598;2022-09-03T08:17:59;18.40;95.60
51853;DHT22;37894;53.172;6.598;2022-09-03T08:20:26;18.50;95.70
51853;DHT22;37894;53.172;6.598;2022-09-03T08:22:52;18.60;94.70
51853;DHT22;37894;53.172;6.598;2022-09-03T08:25:18;18.60;94.20
51853;DHT22;37894;53.172;6.598;2022-09-03T08:27:44;19.20;94.50
51853;DHT22;37894;53.172;6.598;2022-09-03T08:30:10;18.80;94.40
51853;DHT22;37894;53.172;6.598;2022-09-03T08:32:39;18.80;93.90
51853;DHT22;37894;53.172;6.598;2022-09-03T08:35:06;18.90;94.00
51853;DHT22;37894;53.172;6.598;2022-09-03T08:37:37;19.10;93.70
51853;DHT22;37894;53.172;6.598;2022-09-03T08:40:04;19.10;93.30
51853;DHT22;37894;53.172;6.598;2022-09-03T08:44:58;19.50;93.20
51853;DHT22;37894;53.172;6.598;2022-09-03T08:47:28;19.60;92.10
51853;DHT22;37894;53.172;6.598;2022-09-03T08:49:59;19.70;92.20
51853;DHT22;37894;53.172;6.598;2022-09-03T08:52:40;19.80;92.00
51853;DHT22;37894;53.172;6.598;2022-09-03T08:58:09;20.00;91.20
51853;DHT22;37894;53.172;6.598;2022-09-03T09:06:22;20.30;90.40
51853;DHT22;37894;53.172;6.598;2022-09-03T09:09:02;18.50;89.30
51853;DHT22;37894;53.172;6.598;2022-09-03T09:14:36;20.50;90.00
51853;DHT22;37894;53.172;6.598;2022-09-03T09:20:20;20.70;88.10
51853;DHT22;37894;53.172;6.598;2022-09-03T09:23:02;20.70;87.60
51853;DHT22;37894;53.172;6.598;2022-09-03T09:25:29;20.70;86.60
51853;DHT22;37894;53.172;6.598;2022-09-03T09:28:02;20.80;86.60
51853;DHT22;37894;53.172;6.598;2022-09-03T09:30:30;20.90;86.90
51853;DHT22;37894;53.172;6.598;2022-09-03T09:32:56;21.10;86.60
51853;DHT22;37894;53.172;6.598;2022-09-03T09:35:22;21.30;85.00
51853;DHT22;37894;53.172;6.598;2022-09-03T09:37:58;21.40;85.20
51853;DHT22;37894;53.172;6.598;2022-09-03T09:40:31;21.50;83.70
51853;DHT22;37894;53.172;6.598;2022-09-03T09:45:33;21.80;81.00
51853;DHT22;37894;53.172;6.598;2022-09-03T09:48:00;21.90;80.90
51853;DHT22;37894;53.172;6.598;2022-09-03T09:50:26;22.00;81.10
51853;DHT22;37894;53.172;6.598;2022-09-03T09:53:00;22.10;80.00
51853;DHT22;37894;53.172;6.598;2022-09-03T09:55:31;22.20;79.70
51853;DHT22;37894;53.172;6.598;2022-09-03T09:58:07;22.20;77.50
51853;DHT22;37894;53.172;6.598;2022-09-03T10:00:34;22.30;77.40
51853;DHT22;37894;53.172;6.598;2022-09-03T10:03:06;22.40;77.00
51853;DHT22;37894;53.172;6.598;2022-09-03T10:05:35;22.50;77.00
51853;DHT22;37894;53.172;6.598;2022-09-03T10:08:18;22.60;76.50
51853;DHT22;37894;53.172;6.598;2022-09-03T10:10:48;22.70;76.10
51853;DHT22;37894;53.172;6.598;2022-09-03T10:13:37;22.80;75.30
51853;DHT22;37894;53.172;6.598;2022-09-03T10:16:21;22.80;73.40
51853;DHT22;37894;53.172;6.598;2022-09-03T10:18:56;22.90;74.00
51853;DHT22;37894;53.172;6.598;2022-09-03T10:21:31;23.10;73.90
51853;DHT22;37894;53.172;6.598;2022-09-03T10:24:12;23.30;71.80
51853;DHT22;37894;53.172;6.598;2022-09-03T10:26:40;23.40;72.50
51853;DHT22;37894;53.172;6.598;2022-09-03T10:29:09;23.50;71.80
51853;DHT22;37894;53.172;6.598;2022-09-03T10:43:08;24.10;65.50
51853;DHT22;37894;53.172;6.598;2022-09-03T10:51:30;24.50;64.50
51853;DHT22;37894;53.172;6.598;2022-09-03T10:54:18;24.60;62.40
51853;DHT22;37894;53.172;6.598;2022-09-03T10:57:16;24.70;62.70
51853;DHT22;37894;53.172;6.598;2022-09-03T11:00:04;24.80;61.20
51853;DHT22;37894;53.172;6.598;2022-09-03T11:03:02;24.90;60.40
51853;DHT22;37894;53.172;6.598;2022-09-03T11:05:44;25.00;60.50
51853;DHT22;37894;53.172;6.598;2022-09-03T11:08:22;25.00;61.60
51853;DHT22;37894;53.172;6.598;2022-09-03T11:10:53;25.10;60.40
51853;DHT22;37894;53.172;6.598;2022-09-03T11:13:33;25.20;60.20
51853;DHT22;37894;53.172;6.598;2022-09-03T11:16:30;25.30;59.00
51853;DHT22;37894;53.172;6.598;2022-09-03T11:19:08;25.30;58.30
51853;DHT22;37894;53.172;6.598;2022-09-03T11:21:37;25.30;58.70
51853;DHT22;37894;53.172;6.598;2022-09-03T11:24:14;25.40;59.00
51853;DHT22;37894;53.172;6.598;2022-09-03T11:26:48;25.40;58.00
51853;DHT22;37894;53.172;6.598;2022-09-03T11:29:42;25.50;58.50
51853;DHT22;37894;53.172;6.598;2022-09-03T11:32:27;25.60;57.00
51853;DHT22;37894;53.172;6.598;2022-09-03T11:34:55;25.70;55.90
51853;DHT22;37894;53.172;6.598;2022-09-03T11:37:28;25.80;57.10
51853;DHT22;37894;53.172;6.598;2022-09-03T11:42:27;26.00;57.10
51853;DHT22;37894;53.172;6.598;2022-09-03T11:44:59;26.10;56.20
51853;DHT22;37894;53.172;6.598;2022-09-03T11:47:51;26.30;56.10
51853;DHT22;37894;53.172;6.598;2022-09-03T11:52:46;26.40;56.60
51853;DHT22;37894;53.172;6.598;2022-09-03T11:55:26;26.50;55.20
51853;DHT22;37894;53.172;6.598;2022-09-03T11:57:55;26.60;53.40
51853;DHT22;37894;53.172;6.598;2022-09-03T12:00:21;26.50;53.40
51853;DHT22;37894;53.172;6.598;2022-09-03T12:03:00;26.50;53.30
51853;DHT22;37894;53.172;6.598;2022-09-03T12:14:39;26.80;51.10
51853;DHT22;37894;53.172;6.598;2022-09-03T12:19:52;27.10;52.90
51853;DHT22;37894;53.172;6.598;2022-09-03T12:22:21;27.40;51.90
51853;DHT22;37894;53.172;6.598;2022-09-03T12:24:47;27.50;51.00
51853;DHT22;37894;53.172;6.598;2022-09-03T12:27:20;27.60;51.10
51853;DHT22;37894;53.172;6.598;2022-09-03T12:30:00;27.60;51.10
51853;DHT22;37894;53.172;6.598;2022-09-03T12:32:34;27.80;50.70
51853;DHT22;37894;53.172;6.598;2022-09-03T12:35:21;27.90;50.90
51853;DHT22;37894;53.172;6.598;2022-09-03T12:37:50;28.10;50.00
51853;DHT22;37894;53.172;6.598;2022-09-03T12:40:23;28.20;49.70
51853;DHT22;37894;53.172;6.598;2022-09-03T12:42:50;28.10;48.50
51853;DHT22;37894;53.172;6.598;2022-09-03T12:45:26;28.20;49.00
51853;DHT22;37894;53.172;6.598;2022-09-03T12:47:52;28.40;47.50
51853;DHT22;37894;53.172;6.598;2022-09-03T12:50:20;28.30;47.70
51853;DHT22;37894;53.172;6.598;2022-09-03T12:52:57;28.10;48.50
51853;DHT22;37894;53.172;6.598;2022-09-03T12:55:25;28.30;48.90
51853;DHT22;37894;53.172;6.598;2022-09-03T12:58:00;28.40;49.00
51853;DHT22;37894;53.172;6.598;2022-09-03T13:00:29;28.60;47.60
51853;DHT22;37894;53.172;6.598;2022-09-03T13:03:04;28.50;48.40
51853;DHT22;37894;53.172;6.598;2022-09-03T13:05:41;28.40;47.10
51853;DHT22;37894;53.172;6.598;2022-09-03T13:08:12;28.30;47.60
51853;DHT22;37894;53.172;6.598;2022-09-03T13:10:40;28.30;48.20
51853;DHT22;37894;53.172;6.598;2022-09-03T13:13:21;28.30;47.60
51853;DHT22;37894;53.172;6.598;2022-09-03T13:15:55;28.60;47.80
51853;DHT22;37894;53.172;6.598;2022-09-03T13:24:52;29.10;46.20
51853;DHT22;37894;53.172;6.598;2022-09-03T13:30:03;29.50;46.70
51853;DHT22;37894;53.172;6.598;2022-09-03T13:32:50;29.60;46.60
51853;DHT22;37894;53.172;6.598;2022-09-03T13:38:32;30.10;45.80
51853;DHT22;37894;53.172;6.598;2022-09-03T13:43:56;30.20;45.10
51853;DHT22;37894;53.172;6.598;2022-09-03T13:49:01;30.20;45.30
51853;DHT22;37894;53.172;6.598;2022-09-03T13:51:56;30.50;44.70
51853;DHT22;37894;53.172;6.598;2022-09-03T13:54:30;30.30;44.30
51853;DHT22;37894;53.172;6.598;2022-09-03T13:57:03;30.20;44.30
51853;DHT22;37894;53.172;6.598;2022-09-03T13:59:47;30.20;44.80
51853;DHT22;37894;53.172;6.598;2022-09-03T14:02:42;30.40;44.30
51853;DHT22;37894;53.172;6.598;2022-09-03T14:05:14;30.30;43.70
51853;DHT22;37894;53.172;6.598;2022-09-03T14:19:04;30.00;44.10
51853;DHT22;37894;53.172;6.598;2022-09-03T14:21:43;29.50;44.50
51853;DHT22;37894;53.172;6.598;2022-09-03T14:26:49;28.00;46.10
51853;DHT22;37894;53.172;6.598;2022-09-03T14:29:16;27.50;46.80
51853;DHT22;37894;53.172;6.598;2022-09-03T14:32:17;27.00;47.40
51853;DHT22;37894;53.172;6.598;2022-09-03T14:40:29;26.30;48.60
51853;DHT22;37894;53.172;6.598;2022-09-03T14:43:09;26.10;48.70
51853;DHT22;37894;53.172;6.598;2022-09-03T14:46:05;25.90;48.30
51853;DHT22;37894;53.172;6.598;2022-09-03T14:59:59;25.40;50.10
51853;DHT22;37894;53.172;6.598;2022-09-03T15:10:25;25.20;50.80
51853;DHT22;37894;53.172;6.598;2022-09-03T15:13:00;25.20;50.40
51853;DHT22;37894;53.172;6.598;2022-09-03T15:26:29;25.00;51.90
51853;DHT22;37894;53.172;6.598;2022-09-03T15:29:37;25.00;51.30
51853;DHT22;37894;53.172;6.598;2022-09-03T15:40:24;24.80;52.10
51853;DHT22;37894;53.172;6.598;2022-09-03T15:43:17;24.80;52.10
51853;DHT22;37894;53.172;6.598;2022-09-03T15:45:59;24.80;52.20
51853;DHT22;37894;53.172;6.598;2022-09-03T15:48:56;24.70;52.40
51853;DHT22;37894;53.172;6.598;2022-09-03T15:54:12;24.70;53.10
51853;DHT22;37894;53.172;6.598;2022-09-03T15:56:48;24.60;53.20
51853;DHT22;37894;53.172;6.598;2022-09-03T16:02:24;24.50;54.20
51853;DHT22;37894;53.172;6.598;2022-09-03T16:08:01;24.50;54.00
51853;DHT22;37894;53.172;6.598;2022-09-03T16:11:06;24.50;53.70
51853;DHT22;37894;53.172;6.598;2022-09-03T16:29:56;24.50;54.30
51853;DHT22;37894;53.172;6.598;2022-09-03T16:32:49;24.40;54.90
51853;DHT22;37894;53.172;6.598;2022-09-03T16:47:06;24.20;56.00
51853;DHT22;37894;53.172;6.598;2022-09-03T16:52:41;24.10;56.20
51853;DHT22;37894;53.172;6.598;2022-09-03T16:55:23;24.10;56.70
51853;DHT22;37894;53.172;6.598;2022-09-03T16:58:13;24.00;56.50
51853;DHT22;37894;53.172;6.598;2022-09-03T17:01:00;23.90;57.70
51853;DHT22;37894;53.172;6.598;2022-09-03T17:06:30;23.90;57.00
51853;DHT22;37894;53.172;6.598;2022-09-03T17:09:17;23.80;57.50
51853;DHT22;37894;53.172;6.598;2022-09-03T17:17:24;23.80;58.30
51853;DHT22;37894;53.172;6.598;2022-09-03T17:20:00;23.80;58.20
51853;DHT22;37894;53.172;6.598;2022-09-03T17:25:28;23.70;59.30
51853;DHT22;37894;53.172;6.598;2022-09-03T17:30:57;23.60;58.70
51853;DHT22;37894;53.172;6.598;2022-09-03T17:36:21;23.60;58.80
51853;DHT22;37894;53.172;6.598;2022-09-03T17:41:51;23.50;59.20
51853;DHT22;37894;53.172;6.598;2022-09-03T17:55:36;23.10;60.30
51853;DHT22;37894;53.172;6.598;2022-09-03T18:03:53;22.80;60.50
51853;DHT22;37894;53.172;6.598;2022-09-03T18:09:33;22.60;60.50
51853;DHT22;37894;53.172;6.598;2022-09-03T18:12:14;22.60;60.50
51853;DHT22;37894;53.172;6.598;2022-09-03T18:14:55;22.50;60.80
51853;DHT22;37894;53.172;6.598;2022-09-03T18:17:49;22.40;60.80
51853;DHT22;37894;53.172;6.598;2022-09-03T18:20:16;22.30;60.90
51853;DHT22;37894;53.172;6.598;2022-09-03T18:23:18;22.20;60.80
51853;DHT22;37894;53.172;6.598;2022-09-03T18:26:08;22.10;61.10
51853;DHT22;37894;53.172;6.598;2022-09-03T18:29:02;22.10;61.20
51853;DHT22;37894;53.172;6.598;2022-09-03T18:31:48;22.00;61.50
51853;DHT22;37894;53.172;6.598;2022-09-03T18:34:34;21.90;61.60
51853;DHT22;37894;53.172;6.598;2022-09-03T18:37:21;21.80;61.90
51853;DHT22;37894;53.172;6.598;2022-09-03T18:40:08;21.60;62.20
51853;DHT22;37894;53.172;6.598;2022-09-03T18:43:07;21.60;62.40
51853;DHT22;37894;53.172;6.598;2022-09-03T18:49:16;21.40;63.90
51853;DHT22;37894;53.172;6.598;2022-09-03T18:52:20;21.30;63.40
51853;DHT22;37894;53.172;6.598;2022-09-03T18:58:29;21.10;64.60
51853;DHT22;37894;53.172;6.598;2022-09-03T19:10:39;20.90;66.00
51853;DHT22;37894;53.172;6.598;2022-09-03T19:13:35;20.80;65.90
51853;DHT22;37894;53.172;6.598;2022-09-03T19:16:42;20.70;65.90
51853;DHT22;37894;53.172;6.598;2022-09-03T19:19:48;20.70;66.20
51853;DHT22;37894;53.172;6.598;2022-09-03T19:22:40;20.60;67.30
51853;DHT22;37894;53.172;6.598;2022-09-03T19:25:27;20.50;66.70
51853;DHT22;37894;53.172;6.598;2022-09-03T19:28:40;20.50;66.80
51853;DHT22;37894;53.172;6.598;2022-09-03T19:43:56;20.20;67.60
51853;DHT22;37894;53.172;6.598;2022-09-03T19:46:50;20.10;67.70
51853;DHT22;37894;53.172;6.598;2022-09-03T19:55:54;20.10;68.10
51853;DHT22;37894;53.172;6.598;2022-09-03T19:58:46;19.90;68.30
51853;DHT22;37894;53.172;6.598;2022-09-03T20:01:33;19.90;68.40
51853;DHT22;37894;53.172;6.598;2022-09-03T20:04:20;19.80;68.40
51853;DHT22;37894;53.172;6.598;2022-09-03T20:07:08;19.70;68.30
51853;DHT22;37894;53.172;6.598;2022-09-03T20:09:54;19.70;68.50
51853;DHT22;37894;53.172;6.598;2022-09-03T20:12:44;19.60;68.60
51853;DHT22;37894;53.172;6.598;2022-09-03T20:15:12;19.60;68.90
51853;DHT22;37894;53.172;6.598;2022-09-03T20:23:20;19.50;68.90
51853;DHT22;37894;53.172;6.598;2022-09-03T20:36:50;19.40;68.70
51853;DHT22;37894;53.172;6.598;2022-09-03T20:39:38;19.40;68.80
51853;DHT22;37894;53.172;6.598;2022-09-03T20:56:15;19.20;69.10
51853;DHT22;37894;53.172;6.598;2022-09-03T20:58:52;19.20;69.10
51853;DHT22;37894;53.172;6.598;2022-09-03T21:01:29;19.10;69.10
51853;DHT22;37894;53.172;6.598;2022-09-03T21:06:53;19.10;69.80
51853;DHT22;37894;53.172;6.598;2022-09-03T21:09:42;19.10;69.90
51853;DHT22;37894;53.172;6.598;2022-09-03T21:12:42;19.00;70.40
51853;DHT22;37894;53.172;6.598;2022-09-03T21:15:32;19.00;70.20
51853;DHT22;37894;53.172;6.598;2022-09-03T21:24:00;18.90;70.00
51853;DHT22;37894;53.172;6.598;2022-09-03T21:26:35;18.90;70.30
51853;DHT22;37894;53.172;6.598;2022-09-03T21:29:20;18.80;70.10
51853;DHT22;37894;53.172;6.598;2022-09-03T21:31:50;18.80;70.00
51853;DHT22;37894;53.172;6.598;2022-09-03T21:34:36;18.70;70.30
51853;DHT22;37894;53.172;6.598;2022-09-03T21:37:05;18.70;69.70
51853;DHT22;37894;53.172;6.598;2022-09-03T21:39:42;18.70;69.70
51853;DHT22;37894;53.172;6.598;2022-09-03T21:42:17;18.70;70.20
51853;DHT22;37894;53.172;6.598;2022-09-03T21:44:59;18.70;70.50
51853;DHT22;37894;53.172;6.598;2022-09-03T21:47:30;18.60;70.40
51853;DHT22;37894;53.172;6.598;2022-09-03T21:50:10;18.60;70.30
51853;DHT22;37894;53.172;6.598;2022-09-03T21:53:24;18.60;70.70